sensor_id;sensor_type;location;lat;lon;timestamp;pressure;altitude;pressure_sealevel;temperature;humidity
15444;BME280;7822;48.146;11.576;2023-07-13T00:00:13;95144.44;;;19.73;80.62
15444;BME280;7822;48.146;11.576;2023-07-13T00:02:42;95135.72;;;19.73;80.74
15444;BME280;7822;48.146;11.576;2023-07-13T00:05:10;95139.97;;;19.74;80.47
15444;BME280;7822;48.146;11.576;2023-07-13T00:07:37;95124.16;;;19.74;80.70
15444;BME280;7822;48.146;11.576;2023-07-13T00:10:05;95127.81;;;19.73;80.79
15444;BME280;7822;48.146;11.576;2023-07-13T00:12:36;95129.44;;;19.74;80.48
15444;BME280;7822;48.146;11.576;2023-07-13T00:15:05;95128.63;;;19.73;80.72
15444;BME280;7822;48.146;11.576;2023-07-13T00:17:33;95120.75;;;19.73;80.61
15444;BME280;7822;48.146;11.576;2023-07-13T00:20:01;95123.38;;;19.73;80.50
15444;BME280;7822;48.146;11.576;2023-07-13T00:22:30;95132.88;;;19.74;80.41
15444;BME280;7822;48.146;11.576;2023-07-13T00:24:57;95122.53;;;19.73;80.52
15444;BME280;7822;48.146;11.576;2023-07-13T00:27:25;95114.66;;;19.73;80.63
15444;BME280;7822;48.146;11.576;2023-07-13T00:29:54;95119.09;;;19.72;80.56
15444;BME280;7822;48.146;11.576;2023-07-13T00:32:22;95121.72;;;19.72;80.37
15444;BME280;7822;48.146;11.576;2023-07-13T00:34:51;95127.00;;;19.72;80.59
15444;BME280;7822;48.146;11.576;2023-07-13T00:37:19;95133.06;;;19.73;80.51
15444;BME280;7822;48.146;11.576;2023-07-13T00:39:47;95130.63;;;19.71;80.72
15444;BME280;7822;48.146;11.576;2023-07-13T00:42:14;95136.69;;;19.72;80.50
15444;BME280;7822;48.146;11.576;2023-07-13T00:47:26;95136.69;;;19.72;80.80
15444;BME280;7822;48.146;11.576;2023-07-13T00:49:53;95142.78;;;19.72;80.79
15444;BME280;7822;48.146;11.576;2023-07-13T00:52:21;95138.53;;;19.71;80.76
15444;BME280;7822;48.146;11.576;2023-07-13T00:54:48;95133.28;;;19.71;80.53
15444;BME280;7822;48.146;11.576;2023-07-13T00:57:17;95135.06;;;19.71;80.55
15444;BME280;7822;48.146;11.576;2023-07-13T00:59:47;95138.53;;;19.71;80.71
15444;BME280;7822;48.146;11.576;2023-07-13T01:02:16;95128.00;;;19.71;80.72
15444;BME280;7822;48.146;11.576;2023-07-13T01:04:45;95130.63;;;19.71;80.84
15444;BME280;7822;48.146;11.576;2023-07-13T01:07:13;95116.66;;;19.71;80.46
15444;BME280;7822;48.146;11.576;2023-07-13T01:09:40;95110.56;;;19.70;80.52
15444;BME280;7822;48.146;11.576;2023-07-13T01:12:08;95104.47;;;19.70;80.56
15444;BME280;7822;48.146;11.576;2023-07-13T01:14:35;95094.78;;;19.70;80.54
15444;BME280;7822;48.146;11.576;2023-07-13T01:17:03;95091.31;;;19.70;80.63
15444;BME280;7822;48.146;11.576;2023-07-13T01:19:32;95092.97;;;19.71;80.58
15444;BME280;7822;48.146;11.576;2023-07-13T01:22:04;95083.41;;;19.70;80.52
15444;BME280;7822;48.146;11.576;2023-07-13T01:24:35;95088.53;;;19.71;80.76
15444;BME280;7822;48.146;11.576;2023-07-13T01:27:03;95083.25;;;19.71;80.73
15444;BME280;7822;48.146;11.576;2023-07-13T01:29:32;95075.38;;;19.71;80.80
15444;BME280;7822;48.146;11.576;2023-07-13T01:32:00;95078.00;;;19.71;80.90
15444;BME280;7822;48.146;11.576;2023-07-13T01:34:28;95085.88;;;19.71;80.42
15444;BME280;7822;48.146;11.576;2023-07-13T01:36:55;95087.50;;;19.72;80.49
15444;BME280;7822;48.146;11.576;2023-07-13T01:39:24;95070.88;;;19.72;80.64
15444;BME280;7822;48.146;11.576;2023-07-13T01:41:52;95069.06;;;19.72;80.53
15444;BME280;7822;48.146;11.576;2023-07-13T01:44:19;95076.16;;;19.72;80.48
15444;BME280;7822;48.146;11.576;2023-07-13T01:46:47;95078.00;;;19.71;80.60
15444;BME280;7822;48.146;11.576;2023-07-13T01:49:14;95084.06;;;19.72;80.71
15444;BME280;7822;48.146;11.576;2023-07-13T01:51:42;95090.97;;;19.73;80.52
15444;BME280;7822;48.146;11.576;2023-07-13T01:54:10;95096.22;;;19.73;80.63
15444;BME280;7822;48.146;11.576;2023-07-13T01:56:38;95104.13;;;19.73;80.59
15444;BME280;7822;48.146;11.576;2023-07-13T01:59:08;95103.31;;;19.72;80.76
15444;BME280;7822;48.146;11.576;2023-07-13T02:01:35;95109.38;;;19.73;80.75
15444;BME280;7822;48.146;11.576;2023-07-13T02:04:03;95116.47;;;19.72;80.69
15444;BME280;7822;48.146;11.576;2023-07-13T02:06:30;95108.75;;;19.71;80.55
15444;BME280;7822;48.146;11.576;2023-07-13T02:08:58;95112.22;;;19.71;80.49
15444;BME280;7822;48.146;11.576;2023-07-13T02:11:26;95117.47;;;19.71;80.39
15444;BME280;7822;48.146;11.576;2023-07-13T02:14:00;95122.75;;;19.71;80.53
15444;BME280;7822;48.146;11.576;2023-07-13T02:16:28;95126.34;;;19.70;80.56
15444;BME280;7822;48.146;11.576;2023-07-13T02:18:56;95124.53;;;19.71;80.70
15444;BME280;7822;48.146;11.576;2023-07-13T02:21:23;95115.81;;;19.70;80.61
15444;BME280;7822;48.146;11.576;2023-07-13T02:23:51;95128.00;;;19.71;80.54
15444;BME280;7822;48.146;11.576;2023-07-13T02:26:18;95126.34;;;19.70;80.80
15444;BME280;7822;48.146;11.576;2023-07-13T02:28:46;95117.47;;;19.71;80.82
15444;BME280;7822;48.146;11.576;2023-07-13T02:31:15;95129.81;;;19.71;80.65
15444;BME280;7822;48.146;11.576;2023-07-13T02:33:43;95130.78;;;19.70;80.85
15444;BME280;7822;48.146;11.576;2023-07-13T02:36:10;95138.53;;;19.71;80.53
15444;BME280;7822;48.146;11.576;2023-07-13T02:38:39;95148.25;;;19.71;80.71
15444;BME280;7822;48.146;11.576;2023-07-13T02:41:07;95155.31;;;19.70;80.82
15444;BME280;7822;48.146;11.576;2023-07-13T02:43:35;95159.59;;;19.71;80.66
15444;BME280;7822;48.146;11.576;2023-07-13T02:46:03;95166.66;;;19.71;80.65
15444;BME280;7822;48.146;11.576;2023-07-13T02:48:36;95169.28;;;19.71;80.72
15444;BME280;7822;48.146;11.576;2023-07-13T02:51:04;95172.91;;;19.70;80.52
15444;BME280;7822;48.146;11.576;2023-07-13T02:53:31;95170.28;;;19.70;80.63
15444;BME280;7822;48.146;11.576;2023-07-13T02:55:59;95171.09;;;19.70;80.86
15444;BME280;7822;48.146;11.576;2023-07-13T02:58:26;95167.50;;;19.71;80.50
15444;BME280;7822;48.146;11.576;2023-07-13T03:00:55;95156.97;;;19.71;80.87
15444;BME280;7822;48.146;11.576;2023-07-13T03:03:24;95160.56;;;19.70;80.43
15444;BME280;7822;48.146;11.576;2023-07-13T03:05:59;95163.22;;;19.70;80.63
15444;BME280;7822;48.146;11.576;2023-07-13T03:08:26;95171.94;;;19.71;80.65
15444;BME280;7822;48.146;11.576;2023-07-13T03:10:58;95185.09;;;19.71;80.82
15444;BME280;7822;48.146;11.576;2023-07-13T03:13:26;95185.91;;;19.71;80.66
15444;BME280;7822;48.146;11.576;2023-07-13T03:15:53;95191.97;;;19.72;80.60
15444;BME280;7822;48.146;11.576;2023-07-13T03:18:21;95190.16;;;19.72;80.58
15444;BME280;7822;48.146;11.576;2023-07-13T03:20:49;95193.81;;;19.71;80.90
15444;BME280;7822;48.146;11.576;2023-07-13T03:23:18;95180.66;;;19.71;80.57
15444;BME280;7822;48.146;11.576;2023-07-13T03:25:46;95184.91;;;19.72;80.79
15444;BME280;7822;48.146;11.576;2023-07-13T03:28:14;95184.06;;;19.72;80.89
15444;BME280;7822;48.146;11.576;2023-07-13T03:30:42;95176.19;;;19.72;80.76
15444;BME280;7822;48.146;11.576;2023-07-13T03:33:09;95189.34;;;19.72;80.64
15444;BME280;7822;48.146;11.576;2023-07-13T03:35:40;95202.50;;;19.72;80.89
15444;BME280;7822;48.146;11.576;2023-07-13T03:38:07;95200.06;;;19.70;80.62
15444;BME280;7822;48.146;11.576;2023-07-13T03:40:36;95203.50;;;19.71;80.67
15444;BME280;7822;48.146;11.576;2023-07-13T03:43:04;95206.97;;;19.71;80.58
15444;BME280;7822;48.146;11.576;2023-07-13T03:45:31;95208.78;;;19.71;80.63
15444;BME280;7822;48.146;11.576;2023-07-13T03:47:58;95206.97;;;19.71;80.80
15444;BME280;7822;48.146;11.576;2023-07-13T03:50:26;95214.03;;;19.71;80.85
15444;BME280;7822;48.146;11.576;2023-07-13T03:52:54;95208.78;;;19.71;80.94
15444;BME280;7822;48.146;11.576;2023-07-13T03:55:22;95205.31;;;19.70;80.88
15444;BME280;7822;48.146;11.576;2023-07-13T03:57:54;95204.50;;;19.70;80.91
15444;BME280;7822;48.146;11.576;2023-07-13T04:00:24;95211.59;;;19.69;80.92
15444;BME280;7822;48.146;11.576;2023-07-13T04:02:52;95202.88;;;19.69;80.81
15444;BME280;7822;48.146;11.576;2023-07-13T04:05:20;95197.63;;;19.69;80.66
15444;BME280;7822;48.146;11.576;2023-07-13T04:07:47;95211.41;;;19.71;80.90
15444;BME280;7822;48.146;11.576;2023-07-13T04:10:15;95204.50;;;19.70;80.94
15444;BME280;7822;48.146;11.576;2023-07-13T04:12:42;95199.22;;;19.70;80.89
15444;BME280;7822;48.146;11.576;2023-07-13T04:15:11;95202.69;;;19.70;80.61
15444;BME280;7822;48.146;11.576;2023-07-13T04:17:39;95207.13;;;19.70;80.63
15444;BME280;7822;48.146;11.576;2023-07-13T04:20:07;95217.66;;;19.70;80.91
15444;BME280;7822;48.146;11.576;2023-07-13T04:22:34;95215.03;;;19.70;81.04
15444;BME280;7822;48.146;11.576;2023-07-13T04:25:02;95214.03;;;19.71;80.73
15444;BME280;7822;48.146;11.576;2023-07-13T04:27:31;95205.13;;;19.72;80.75
15444;BME280;7822;48.146;11.576;2023-07-13T04:29:59;95208.78;;;19.71;80.88
15444;BME280;7822;48.146;11.576;2023-07-13T04:32:27;95212.25;;;19.71;80.62
15444;BME280;7822;48.146;11.576;2023-07-13T04:34:55;95230.66;;;19.71;80.93
15444;BME280;7822;48.146;11.576;2023-07-13T04:37:23;95235.94;;;19.71;80.89
15444;BME280;7822;48.146;11.576;2023-07-13T04:39:51;95231.47;;;19.72;80.88
15444;BME280;7822;48.146;11.576;2023-07-13T04:42:18;95232.28;;;19.72;80.70
15444;BME280;7822;48.146;11.576;2023-07-13T04:44:47;95235.94;;;19.71;80.61
15444;BME280;7822;48.146;11.576;2023-07-13T04:47:14;95224.38;;;19.72;80.92
15444;BME280;7822;48.146;11.576;2023-07-13T04:49:43;95226.03;;;19.73;80.67
15444;BME280;7822;48.146;11.576;2023-07-13T04:52:12;95223.56;;;19.72;80.87
15444;BME280;7822;48.146;11.576;2023-07-13T04:54:39;95234.91;;;19.72;80.63
15444;BME280;7822;48.146;11.576;2023-07-13T04:57:07;95235.75;;;19.73;80.90
15444;BME280;7822;48.146;11.576;2023-07-13T04:59:34;95227.84;;;19.73;80.94
15444;BME280;7822;48.146;11.576;2023-07-13T05:02:02;95232.28;;;19.72;80.53
15444;BME280;7822;48.146;11.576;2023-07-13T05:04:30;95241.00;;;19.73;80.93
15444;BME280;7822;48.146;11.576;2023-07-13T05:06:58;95242.81;;;19.72;80.65
15444;BME280;7822;48.146;11.576;2023-07-13T05:09:26;95241.00;;;19.73;80.85
15444;BME280;7822;48.146;11.576;2023-07-13T05:11:54;95242.00;;;19.72;80.75
15444;BME280;7822;48.146;11.576;2023-07-13T05:14:21;95240.19;;;19.72;80.63
15444;BME280;7822;48.146;11.576;2023-07-13T05:16:49;95238.56;;;19.71;80.80
15444;BME280;7822;48.146;11.576;2023-07-13T05:19:16;95235.94;;;19.71;80.68
15444;BME280;7822;48.146;11.576;2023-07-13T05:21:44;95240.19;;;19.72;80.68
15444;BME280;7822;48.146;11.576;2023-07-13T05:24:12;95243.81;;;19.71;80.80
15444;BME280;7822;48.146;11.576;2023-07-13T05:26:50;95251.72;;;19.71;80.98
15444;BME280;7822;48.146;11.576;2023-07-13T05:29:18;95257.78;;;19.72;80.65
15444;BME280;7822;48.146;11.576;2023-07-13T05:31:45;95257.78;;;19.72;80.74
15444;BME280;7822;48.146;11.576;2023-07-13T05:34:13;95257.00;;;19.71;80.72
15444;BME280;7822;48.146;11.576;2023-07-13T05:36:40;95257.00;;;19.71;80.75
15444;BME280;7822;48.146;11.576;2023-07-13T05:39:08;95255.16;;;19.72;80.93
15444;BME280;7822;48.146;11.576;2023-07-13T05:41:37;95262.25;;;19.71;80.94
15444;BME280;7822;48.146;11.576;2023-07-13T05:44:04;95257.00;;;19.71;80.95
15444;BME280;7822;48.146;11.576;2023-07-13T05:46:32;95260.59;;;19.70;80.76
15444;BME280;7822;48.146;11.576;2023-07-13T05:49:00;95251.72;;;19.71;80.88
15444;BME280;7822;48.146;11.576;2023-07-13T05:51:27;95261.44;;;19.71;80.63
15444;BME280;7822;48.146;11.576;2023-07-13T05:53:55;95258.78;;;19.71;80.40
15444;BME280;7822;48.146;11.576;2023-07-13T05:56:23;95259.63;;;19.71;80.98
15444;BME280;7822;48.146;11.576;2023-07-13T05:58:52;95256.16;;;19.71;80.64
15444;BME280;7822;48.146;11.576;2023-07-13T06:01:20;95256.16;;;19.71;81.02
15444;BME280;7822;48.146;11.576;2023-07-13T06:03:48;95252.69;;;19.70;80.95
15444;BME280;7822;48.146;11.576;2023-07-13T06:06:16;95260.41;;;19.72;80.77
15444;BME280;7822;48.146;11.576;2023-07-13T06:08:44;95264.88;;;19.71;80.65
15444;BME280;7822;48.146;11.576;2023-07-13T06:11:12;95265.69;;;19.72;80.71
15444;BME280;7822;48.146;11.576;2023-07-13T06:13:41;95279.66;;;19.72;80.61
15444;BME280;7822;48.146;11.576;2023-07-13T06:16:10;95277.03;;;19.72;80.89
15444;BME280;7822;48.146;11.576;2023-07-13T06:18:39;95279.66;;;19.72;80.69
15444;BME280;7822;48.146;11.576;2023-07-13T06:21:07;95282.31;;;19.72;80.63
15444;BME280;7822;48.146;11.576;2023-07-13T06:23:35;95284.94;;;19.72;80.60
15444;BME280;7822;48.146;11.576;2023-07-13T06:26:03;95280.50;;;19.73;80.62
15444;BME280;7822;48.146;11.576;2023-07-13T06:28:30;95290.19;;;19.72;80.64
15444;BME280;7822;48.146;11.576;2023-07-13T06:30:58;95293.66;;;19.73;80.62
15444;BME280;7822;48.146;11.576;2023-07-13T06:33:27;95293.66;;;19.73;80.80
15444;BME280;7822;48.146;11.576;2023-07-13T06:35:55;95304.19;;;19.73;80.87
15444;BME280;7822;48.146;11.576;2023-07-13T06:38:22;95297.25;;;19.72;80.50
15444;BME280;7822;48.146;11.576;2023-07-13T06:40:50;95300.72;;;19.72;80.70
15444;BME280;7822;48.146;11.576;2023-07-13T06:43:17;95302.53;;;19.72;80.58
15444;BME280;7822;48.146;11.576;2023-07-13T06:45:47;95308.63;;;19.72;80.86
15444;BME280;7822;48.146;11.576;2023-07-13T06:48:16;95313.69;;;19.74;80.69
15444;BME280;7822;48.146;11.576;2023-07-13T06:50:45;95318.31;;;19.72;80.70
15444;BME280;7822;48.146;11.576;2023-07-13T06:53:13;95317.34;;;19.73;80.98
15444;BME280;7822;48.146;11.576;2023-07-13T06:55:43;95316.34;;;19.74;81.04
15444;BME280;7822;48.146;11.576;2023-07-13T06:58:11;95317.16;;;19.74;80.77
15444;BME280;7822;48.146;11.576;2023-07-13T07:00:39;95318.97;;;19.74;80.69
15444;BME280;7822;48.146;11.576;2023-07-13T07:03:07;95317.97;;;19.75;80.68
15444;BME280;7822;48.146;11.576;2023-07-13T07:05:34;95315.34;;;19.75;80.76
15444;BME280;7822;48.146;11.576;2023-07-13T07:08:04;95314.53;;;19.74;80.84
15444;BME280;7822;48.146;11.576;2023-07-13T07:10:31;95322.28;;;19.76;80.95
15444;BME280;7822;48.146;11.576;2023-07-13T07:12:59;95323.06;;;19.76;80.84
15444;BME280;7822;48.146;11.576;2023-07-13T07:15:26;95322.28;;;19.76;80.64
15444;BME280;7822;48.146;11.576;2023-07-13T07:17:54;95312.72;;;19.75;80.63
15444;BME280;7822;48.146;11.576;2023-07-13T07:20:22;95316.19;;;19.75;80.88
15444;BME280;7822;48.146;11.576;2023-07-13T07:22:49;95320.44;;;19.76;80.96
15444;BME280;7822;48.146;11.576;2023-07-13T07:25:18;95322.09;;;19.77;80.68
15444;BME280;7822;48.146;11.576;2023-07-13T07:27:46;95323.06;;;19.76;80.72
15444;BME280;7822;48.146;11.576;2023-07-13T07:30:17;95341.50;;;19.76;80.97
15444;BME280;7822;48.146;11.576;2023-07-13T07:32:48;95335.25;;;19.77;81.01
15444;BME280;7822;48.146;11.576;2023-07-13T07:35:18;95329.97;;;19.77;80.96
15444;BME280;7822;48.146;11.576;2023-07-13T07:37:46;95343.16;;;19.77;80.81
15444;BME280;7822;48.146;11.576;2023-07-13T07:40:16;95346.59;;;19.78;80.95
15444;BME280;7822;48.146;11.576;2023-07-13T07:42:48;95347.41;;;19.78;80.73
15444;BME280;7822;48.146;11.576;2023-07-13T07:45:15;95354.50;;;19.78;80.94
15444;BME280;7822;48.146;11.576;2023-07-13T07:47:43;95353.69;;;19.77;80.66
15444;BME280;7822;48.146;11.576;2023-07-13T07:50:10;95357.13;;;19.78;80.72
15444;BME280;7822;48.146;11.576;2023-07-13T07:52:38;95354.50;;;19.78;80.72
15444;BME280;7822;48.146;11.576;2023-07-13T07:55:06;95366.66;;;19.79;80.73
15444;BME280;7822;48.146;11.576;2023-07-13T07:57:36;95371.09;;;19.78;80.91
15444;BME280;7822;48.146;11.576;2023-07-13T08:00:09;95368.47;;;19.78;80.72
15444;BME280;7822;48.146;11.576;2023-07-13T08:02:39;95374.56;;;19.79;81.08
15444;BME280;7822;48.146;11.576;2023-07-13T08:05:27;95382.44;;;19.79;80.62
15444;BME280;7822;48.146;11.576;2023-07-13T08:07:58;95379.00;;;19.78;80.85
15444;BME280;7822;48.146;11.576;2023-07-13T08:10:26;95380.84;;;19.78;80.99
15444;BME280;7822;48.146;11.576;2023-07-13T08:12:53;95378.19;;;19.78;80.79
15444;BME280;7822;48.146;11.576;2023-07-13T08:15:25;95386.88;;;19.78;80.76
15444;BME280;7822;48.146;11.576;2023-07-13T08:17:53;95381.63;;;19.78;80.83
15444;BME280;7822;48.146;11.576;2023-07-13T08:20:22;95379.00;;;19.78;80.98
15444;BME280;7822;48.146;11.576;2023-07-13T08:22:50;95381.63;;;19.78;81.12
15444;BME280;7822;48.146;11.576;2023-07-13T08:25:18;95384.25;;;19.78;80.86
15444;BME280;7822;48.146;11.576;2023-07-13T08:27:47;95391.38;;;19.78;81.03
15444;BME280;7822;48.146;11.576;2023-07-13T08:30:14;95387.91;;;19.77;80.88
15444;BME280;7822;48.146;11.576;2023-07-13T08:32:43;95402.69;;;19.78;80.88
15444;BME280;7822;48.146;11.576;2023-07-13T08:35:10;95393.16;;;19.77;80.71
15444;BME280;7822;48.146;11.576;2023-07-13T08:37:40;95398.44;;;19.77;80.81
15444;BME280;7822;48.146;11.576;2023-07-13T08:40:07;95404.53;;;19.78;81.01
15444;BME280;7822;48.146;11.576;2023-07-13T08:42:37;95406.34;;;19.77;80.87
15444;BME280;7822;48.146;11.576;2023-07-13T08:45:07;95393.16;;;19.77;80.94
15444;BME280;7822;48.146;11.576;2023-07-13T08:47:39;95402.03;;;19.76;81.11
15444;BME280;7822;48.146;11.576;2023-07-13T08:50:11;95400.25;;;19.77;81.04
15444;BME280;7822;48.146;11.576;2023-07-13T08:52:41;95408.13;;;19.77;81.05
15444;BME280;7822;48.146;11.576;2023-07-13T08:55:12;95406.34;;;19.77;80.82
15444;BME280;7822;48.146;11.576;2023-07-13T08:57:40;95416.03;;;19.77;81.10
15444;BME280;7822;48.146;11.576;2023-07-13T09:00:09;95406.34;;;19.77;81.06
15444;BME280;7822;48.146;11.576;2023-07-13T09:02:41;95409.94;;;19.76;80.85
15444;BME280;7822;48.146;11.576;2023-07-13T09:05:12;95403.88;;;19.76;80.77
15444;BME280;7822;48.146;11.576;2023-07-13T09:07:44;95408.13;;;19.77;80.85
15444;BME280;7822;48.146;11.576;2023-07-13T09:10:16;95405.50;;;19.77;80.86
15444;BME280;7822;48.146;11.576;2023-07-13T09:12:50;95402.88;;;19.77;81.07
15444;BME280;7822;48.146;11.576;2023-07-13T09:15:24;95394.97;;;19.77;81.09
15444;BME280;7822;48.146;11.576;2023-07-13T09:17:53;95406.34;;;19.77;80.77
15444;BME280;7822;48.146;11.576;2023-07-13T09:20:25;95410.78;;;19.77;80.75
15444;BME280;7822;48.146;11.576;2023-07-13T09:22:54;95402.69;;;19.78;80.86
15444;BME280;7822;48.146;11.576;2023-07-13T09:25:24;95407.16;;;19.78;80.66
15444;BME280;7822;48.146;11.576;2023-07-13T09:27:55;95401.72;;;19.79;80.67
15444;BME280;7822;48.146;11.576;2023-07-13T09:30:25;95399.25;;;19.78;80.65
15444;BME280;7822;48.146;11.576;2023-07-13T09:32:55;95407.94;;;19.78;80.87
15444;BME280;7822;48.146;11.576;2023-07-13T09:35:27;95414.88;;;19.79;81.05
15444;BME280;7822;48.146;11.576;2023-07-13T09:38:01;95421.13;;;19.78;81.01
15444;BME280;7822;48.146;11.576;2023-07-13T09:40:35;95418.47;;;19.78;80.83
15444;BME280;7822;48.146;11.576;2023-07-13T09:43:04;95417.69;;;19.78;81.05
15444;BME280;7822;48.146;11.576;2023-07-13T09:45:33;95415.84;;;19.78;80.76
15444;BME280;7822;48.146;11.576;2023-07-13T09:48:04;95410.59;;;19.78;80.92
15444;BME280;7822;48.146;11.576;2023-07-13T09:50:34;95414.03;;;19.79;81.00
15444;BME280;7822;48.146;11.576;2023-07-13T09:53:01;95413.22;;;19.78;81.05
15444;BME280;7822;48.146;11.576;2023-07-13T09:55:30;95414.22;;;19.77;80.92
15444;BME280;7822;48.146;11.576;2023-07-13T09:58:02;95412.44;;;19.78;80.86
15444;BME280;7822;48.146;11.576;2023-07-13T10:00:31;95412.44;;;19.78;80.96
15444;BME280;7822;48.146;11.576;2023-07-13T10:03:00;95412.44;;;19.78;80.97
15444;BME280;7822;48.146;11.576;2023-07-13T10:05:41;95411.59;;;19.77;80.81
15444;BME280;7822;48.146;11.576;2023-07-13T10:08:16;95408.13;;;19.77;80.98
15444;BME280;7822;48.146;11.576;2023-07-13T10:10:45;95420.31;;;19.78;80.82
15444;BME280;7822;48.146;11.576;2023-07-13T10:13:26;95414.22;;;19.77;80.97
15444;BME280;7822;48.146;11.576;2023-07-13T10:15:55;95419.50;;;19.77;80.86
15444;BME280;7822;48.146;11.576;2023-07-13T10:18:22;95426.56;;;19.77;80.72
15444;BME280;7822;48.146;11.576;2023-07-13T10:20:54;95423.94;;;19.77;80.76
15444;BME280;7822;48.146;11.576;2023-07-13T10:23:47;95427.41;;;19.77;80.83
15444;BME280;7822;48.146;11.576;2023-07-13T10:26:16;95422.13;;;19.77;80.61
15444;BME280;7822;48.146;11.576;2023-07-13T10:28:47;95421.31;;;19.77;80.99
15444;BME280;7822;48.146;11.576;2023-07-13T10:31:17;95415.22;;;19.76;80.68
15444;BME280;7822;48.146;11.576;2023-07-13T10:33:46;95416.03;;;19.77;80.71
15444;BME280;7822;48.146;11.576;2023-07-13T10:36:16;95416.22;;;19.75;80.92
15444;BME280;7822;48.146;11.576;2023-07-13T10:38:45;95424.75;;;19.77;80.83
15444;BME280;7822;48.146;11.576;2023-07-13T10:41:15;95416.03;;;19.77;81.05
15444;BME280;7822;48.146;11.576;2023-07-13T10:43:45;95415.22;;;19.76;80.66
15444;BME280;7822;48.146;11.576;2023-07-13T10:46:18;95416.03;;;19.77;80.74
15444;BME280;7822;48.146;11.576;2023-07-13T10:48:48;95416.88;;;19.77;80.92
15444;BME280;7822;48.146;11.576;2023-07-13T10:51:19;95419.50;;;19.77;80.87
15444;BME280;7822;48.146;11.576;2023-07-13T10:54:10;95430.84;;;19.78;80.95
15444;BME280;7822;48.146;11.576;2023-07-13T10:56:44;95430.03;;;19.77;80.97
15444;BME280;7822;48.146;11.576;2023-07-13T10:59:17;95434.28;;;19.78;80.72
15444;BME280;7822;48.146;11.576;2023-07-13T11:01:53;95435.94;;;19.79;80.96
15444;BME280;7822;48.146;11.576;2023-07-13T11:04:22;95433.47;;;19.78;80.79
15444;BME280;7822;48.146;11.576;2023-07-13T11:06:56;95435.09;;;19.79;81.06
15444;BME280;7822;48.146;11.576;2023-07-13T11:09:34;95431.66;;;19.78;80.94
15444;BME280;7822;48.146;11.576;2023-07-13T11:12:06;95433.47;;;19.78;80.74
15444;BME280;7822;48.146;11.576;2023-07-13T11:14:35;95432.47;;;19.79;80.95
15444;BME280;7822;48.146;11.576;2023-07-13T11:19:51;95436.91;;;19.78;80.99
15444;BME280;7822;48.146;11.576;2023-07-13T11:22:24;95436.91;;;19.78;81.04
15444;BME280;7822;48.146;11.576;2023-07-13T11:24:56;95434.28;;;19.78;80.68
15444;BME280;7822;48.146;11.576;2023-07-13T11:27:38;95430.84;;;19.78;80.73
15444;BME280;7822;48.146;11.576;2023-07-13T11:30:07;95429.00;;;19.78;81.03
15444;BME280;7822;48.146;11.576;2023-07-13T11:32:35;95422.94;;;19.78;80.68
15444;BME280;7822;48.146;11.576;2023-07-13T11:35:03;95426.38;;;19.78;81.05
15444;BME280;7822;48.146;11.576;2023-07-13T11:37:32;95413.41;;;19.77;80.72
15444;BME280;7822;48.146;11.576;2023-07-13T11:39:59;95418.66;;;19.77;80.92
15444;BME280;7822;48.146;11.576;2023-07-13T11:42:27;95410.78;;;19.77;80.81
15444;BME280;7822;48.146;11.576;2023-07-13T11:44:55;95403.69;;;19.77;80.82
15444;BME280;7822;48.146;11.576;2023-07-13T11:47:39;95401.06;;;19.77;80.99
15444;BME280;7822;48.146;11.576;2023-07-13T11:50:16;95399.41;;;19.76;80.88
15444;BME280;7822;48.146;11.576;2023-07-13T11:52:46;95387.06;;;19.77;80.75
15444;BME280;7822;48.146;11.576;2023-07-13T11:55:15;95397.59;;;19.77;80.92
15444;BME280;7822;48.146;11.576;2023-07-13T11:57:44;95386.25;;;19.76;80.95
15444;BME280;7822;48.146;11.576;2023-07-13T12:00:13;95400.25;;;19.77;80.95
15444;BME280;7822;48.146;11.576;2023-07-13T12:02:43;95402.88;;;19.77;80.88
15444;BME280;7822;48.146;11.576;2023-07-13T12:05:12;95393.34;;;19.76;80.74
15444;BME280;7822;48.146;11.576;2023-07-13T12:07:40;95387.06;;;19.77;80.72
15444;BME280;7822;48.146;11.576;2023-07-13T12:10:16;95392.34;;;19.77;80.79
15444;BME280;7822;48.146;11.576;2023-07-13T12:12:48;95394.16;;;19.76;80.65
15444;BME280;7822;48.146;11.576;2023-07-13T12:15:15;95394.16;;;19.76;80.86
15444;BME280;7822;48.146;11.576;2023-07-13T12:17:43;95392.34;;;19.77;80.92
15444;BME280;7822;48.146;11.576;2023-07-13T12:20:16;95387.91;;;19.77;80.65
15444;BME280;7822;48.146;11.576;2023-07-13T12:22:45;95385.28;;;19.77;80.93
15444;BME280;7822;48.146;11.576;2023-07-13T12:25:15;95386.25;;;19.76;80.84
15444;BME280;7822;48.146;11.576;2023-07-13T12:27:46;95390.53;;;19.77;80.76
15444;BME280;7822;48.146;11.576;2023-07-13T12:30:27;95385.28;;;19.77;80.76
15444;BME280;7822;48.146;11.576;2023-07-13T12:32:56;95378.19;;;19.78;80.74
15444;BME280;7822;48.146;11.576;2023-07-13T12:35:24;95381.63;;;19.78;80.91
15444;BME280;7822;48.146;11.576;2023-07-13T12:37:52;95386.09;;;19.78;80.75
15444;BME280;7822;48.146;11.576;2023-07-13T12:40:21;95380.00;;;19.77;80.64
15444;BME280;7822;48.146;11.576;2023-07-13T12:42:53;95374.75;;;19.77;80.83
15444;BME280;7822;48.146;11.576;2023-07-13T12:45:22;95377.38;;;19.77;80.63
15444;BME280;7822;48.146;11.576;2023-07-13T12:47:53;95365.03;;;19.78;80.74
15444;BME280;7822;48.146;11.576;2023-07-13T12:50:21;95364.22;;;19.77;80.88
15444;BME280;7822;48.146;11.576;2023-07-13T12:52:50;95370.31;;;19.78;80.70
15444;BME280;7822;48.146;11.576;2023-07-13T12:55:19;95370.31;;;19.78;80.72
15444;BME280;7822;48.146;11.576;2023-07-13T12:57:52;95366.00;;;19.77;81.01
15444;BME280;7822;48.146;11.576;2023-07-13T13:00:24;95344.94;;;19.77;80.67
15444;BME280;7822;48.146;11.576;2023-07-13T13:02:52;95351.03;;;19.77;80.95
15444;BME280;7822;48.146;11.576;2023-07-13T13:05:25;95347.59;;;19.77;80.75
15444;BME280;7822;48.146;11.576;2023-07-13T13:07:53;95347.59;;;19.77;80.66
15444;BME280;7822;48.146;11.576;2023-07-13T13:10:20;95348.41;;;19.77;80.67
15444;BME280;7822;48.146;11.576;2023-07-13T13:12:49;95352.03;;;19.76;80.82
15444;BME280;7822;48.146;11.576;2023-07-13T13:15:18;95345.97;;;19.76;80.63